Viroqua, WI (54665)

4:18 AM CDT on July 30, 2014 (GMT -0500)
Faith Farms Viroqua (KWIVIROQ3) Elev 1217 ft | 43.61 °N, 90.98 °W | Change Station
Active Advisory: Special Statement

Current weather conditions updated 0 second ago

Scattered Clouds
Scattered Clouds
56.5 °F
Feels Like 56.5 °F
N
0.0
Wind Variable Wind from North
Gusts 0.0 mph

Today is forecast to be nearly the same temperature as yesterday.

Today
High -- | Low -- °F
--% Chance of Precip.
Yesterday
High -- | Low -- °F
Precip. -- in
5:50 AM 8:28 PM
Waxing Crescent, 10% visible
Pressure 30.05 in
Visibility 5.0 miles
Clouds Scattered Clouds 9500 ft
Dew Point 56 °F
Humidity 97%
Rainfall 0.00 in
Snow Depth Not available.
UV 0 out of 12
Pollen 6.60 out of 12
Air Quality Not available.
Flu Activity Not available.
METAR KY51 300855Z AUTO 00000KT 5SM SCT095 14/14 A3005 RMK AO1 T01350135

More Conditions Fewer Conditions

Pressure 30.05 in
Visibility 5.0 miles
Clouds Scattered Clouds 9500 ft
Dew Point 56 °F
Humidity 97%
Rainfall 0.00 in
Snow Depth Not available.
UV 0 out of 12
Pollen 6.60 out of 12
Air Quality Not available.
Flu Activity Not available.
METAR KY51 300855Z AUTO 00000KT 5SM SCT095 14/14 A3005 RMK AO1 T01350135

More Conditions Fewer Conditions

10-Day Weather Forecast

Almanac

Astronomy

Jul. 30, 2014 Rise Set
Actual Time 5:50 AM CDT 8:28 PM CDT
Civil Twilight 5:17 AM CDT 9:01 PM CDT
Nautical Twilight 4:36 AM CDT 9:42 PM CDT
Astronomical Twilight 3:49 AM CDT 10:29 PM CDT
Moon 9:30 AM CDT 10:02 PM CDT
Length of Visible Light 15h 43m
Length of Day
14h 37m
Tomorrow will be 2m 13s shorter.
Waxing Crescent, 10% of the Moon is Illuminated
Today
Waxing Crescent
Aug 3
First Quarter
Aug 10
Full
Aug 17
Last Quarter
Aug 25
New

Today's Extremes

State Highs State Lows

Community

WunderPhotos

Upload Photos

1,739,018 photos uploaded!

WunderBlogs® & News

By Dr. Jeff Masters
Director of Meteorology, Weather Underground
By Kari Strenfel
Meteorologist, Weather Underground
By Christopher C. Burt
Weather Historian, Weather Underground
July 29, 2014
July 29, 2014
July 29, 2014

Nearby

Snow Depth

Station Depth Elevation
No new snow has been reported.

Earthquake Activity

City Distance Mag. Time & Date
No recent earthquake activity has been reported nearby.
Minimum magnitude displayed is 2.5.

Coastal Water Temperatures

Place Temperature
No Stations Reporting

Nearby Weather Stations

Station Location Temp. Dew Point Humidity Wind Precip. Elev Updated Type
Faith Farms Viroqua, Viroqua, WI 56.5 °F 56 °F 97% North  at  0.0 mph 0.00 in / hr 1217 ft 4:18 AM CDT Normal
De Soto Wisconsin, De Soto, WI 58.2 °F 58 °F 98% NW  at  0.0 mph 0.00 in / hr 761 ft 4:18 AM CDT Rapid Fire
DeSoto WI, DeSoto, WI 60.2 °F 58 °F 94% West  at  2.3 mph 0.00 in / hr 778 ft 4:18 AM CDT Rapid Fire
APRSWXNET La Crosse WI , La Crosse, WI 58 °F 56 °F 94% West  at  4 mph 0.00 in / hr 1272 ft 3:40 AM CDT MADIS

Show More Stations Show Fewer Stations